Time;durP1;ratioP1;P1;durP2;ratioP2;P2;SDS_P1;SDS_P2;PMS_P1;PMS_P2;Temp;Humidity;BMP_temperature;BMP_pressure;BME280_temperature;BME280_humidity;BME280_pressure;Samples;Min_cycle;Max_cycle;Signal;HPM_P1;HPM_P2
2023/08/09 00:01:59;;;;;;;0.68;0.50;;;13.90;99.90;;;;;;4210851;28;20036;-60
2023/08/09 00:04:01;;;;;;;1.23;0.70;;;13.80;99.90;;;;;;4209633;28;20040;-62
2023/08/09 00:06:02;;;;;;;1.27;0.75;;;13.80;99.90;;;;;;4210006;28;20484;-62
2023/08/09 00:08:03;;;;;;;0.90;0.60;;;13.70;99.90;;;;;;4210778;28;20044;-62
2023/08/09 00:10:05;;;;;;;1.63;0.60;;;13.70;99.90;;;;;;4209676;28;20036;-61
2023/08/09 00:12:06;;;;;;;0.50;0.50;;;13.60;99.90;;;;;;4192761;28;20074;-62
2023/08/09 00:14:08;;;;;;;1.60;0.75;;;13.70;99.90;;;;;;4209251;28;20049;-62
2023/08/09 00:16:09;;;;;;;1.33;0.50;;;13.60;99.90;;;;;;4210376;28;20105;-61
2023/08/09 00:18:10;;;;;;;1.27;0.88;;;13.60;99.90;;;;;;4209363;28;20020;-60
2023/08/09 00:20:12;;;;;;;2.47;0.70;;;13.60;99.90;;;;;;4210638;28;20044;-61
2023/08/09 00:22:13;;;;;;;1.17;0.50;;;13.60;99.90;;;;;;4208975;28;20075;-62
2023/08/09 00:24:14;;;;;;;0.73;0.50;;;13.50;99.90;;;;;;4209659;28;20036;-60
2023/08/09 00:26:16;;;;;;;2.60;0.32;;;13.50;99.90;;;;;;4209224;28;20422;-61
2023/08/09 00:28:17;;;;;;;2.28;0.52;;;13.50;99.90;;;;;;4210629;28;20482;-61
2023/08/09 00:30:18;;;;;;;1.33;1.23;;;13.50;99.90;;;;;;4209516;28;20426;-61
2023/08/09 00:32:19;;;;;;;1.27;0.70;;;13.50;99.90;;;;;;4209059;28;20035;-64
2023/08/09 00:34:20;;;;;;;0.75;0.60;;;13.50;99.90;;;;;;4209347;28;20040;-62
2023/08/09 00:36:21;;;;;;;0.83;0.60;;;13.50;99.90;;;;;;4210171;28;20066;-63
2023/08/09 00:38:22;;;;;;;0.70;0.70;;;13.40;99.90;;;;;;4191945;28;20472;-61
2023/08/09 00:40:24;;;;;;;2.10;0.75;;;13.40;99.90;;;;;;4208442;28;20125;-62
2023/08/09 00:42:25;;;;;;;2.90;0.75;;;13.40;99.90;;;;;;4209455;28;20505;-61
2023/08/09 00:44:26;;;;;;;4.63;0.50;;;13.40;99.90;;;;;;4208922;28;20028;-63
2023/08/09 00:46:28;;;;;;;0.60;0.50;;;13.40;99.90;;;;;;4209734;28;20036;-63
2023/08/09 00:48:29;;;;;;;1.10;0.70;;;13.40;99.90;;;;;;4209470;28;20069;-61
2023/08/09 00:50:30;;;;;;;1.03;0.80;;;13.30;99.90;;;;;;4210233;28;20089;-62
2023/08/09 00:52:32;;;;;;;1.80;0.70;;;13.30;99.90;;;;;;4209556;28;20073;-61
2023/08/09 00:54:33;;;;;;;2.15;0.50;;;13.30;99.90;;;;;;4210666;28;20025;-61
2023/08/09 00:56:35;;;;;;;1.00;0.87;;;13.20;99.90;;;;;;4209478;28;20028;-62
2023/08/09 00:58:36;;;;;;;0.80;0.70;;;13.10;99.90;;;;;;4210422;28;20016;-62
2023/08/09 01:00:37;;;;;;;0.85;0.70;;;13.20;99.90;;;;;;4210536;28;20557;-61
2023/08/09 01:02:38;;;;;;;1.20;0.70;;;13.20;99.90;;;;;;4213618;28;20040;-62
2023/08/09 01:04:40;;;;;;;1.48;0.90;;;13.20;99.90;;;;;;4211949;28;20032;-61
2023/08/09 01:07:03;;;;;;;1.30;0.70;;;13.20;99.90;;;;;;4213150;28;20028;-60
2023/08/09 01:09:37;;;;;;;0.77;0.50;;;13.20;99.90;;;;;;4212101;28;20357;-60
2023/08/09 01:11:38;;;;;;;1.37;0.80;;;13.30;99.90;;;;;;4185496;28;20044;-59
2023/08/09 01:13:41;;;;;;;1.00;0.70;;;13.20;99.90;;;;;;4211973;28;20040;-61
2023/08/09 01:15:44;;;;;;;2.33;0.70;;;13.20;99.90;;;;;;4213230;28;20082;-62
2023/08/09 01:17:49;;;;;;;3.40;0.80;;;13.20;99.90;;;;;;4193981;28;20028;-60
2023/08/09 01:20:00;;;;;;;0.88;0.70;;;13.20;99.90;;;;;;4212754;28;20103;-61
2023/08/09 01:22:16;;;;;;;1.87;0.90;;;13.20;99.90;;;;;;4211952;28;20545;-62
2023/08/09 01:24:18;;;;;;;1.60;0.53;;;13.20;99.90;;;;;;4213388;28;20422;-61
2023/08/09 01:26:19;;;;;;;2.20;0.70;;;13.20;99.90;;;;;;4211918;28;20422;-61
2023/08/09 01:28:20;;;;;;;1.10;0.60;;;13.20;99.90;;;;;;4212659;28;20020;-61
2023/08/09 01:30:21;;;;;;;4.70;0.50;;;13.20;99.90;;;;;;4212037;28;20109;-60
2023/08/09 01:32:25;;;;;;;0.97;0.70;;;13.20;99.90;;;;;;4212797;28;20414;-61
2023/08/09 01:34:26;;;;;;;1.03;0.63;;;13.10;99.90;;;;;;4211980;28;20069;-61
2023/08/09 01:36:33;;;;;;;1.20;0.60;;;13.10;99.90;;;;;;4211171;28;20020;-63
2023/08/09 01:38:40;;;;;;;0.77;0.50;;;13.10;99.90;;;;;;4212533;28;20028;-61
2023/08/09 01:40:41;;;;;;;0.63;0.53;;;13.00;99.90;;;;;;4211502;28;20032;-61
2023/08/09 01:42:42;;;;;;;1.90;0.60;;;13.00;99.90;;;;;;4212870;28;20040;-61
2023/08/09 01:44:44;;;;;;;2.13;0.70;;;13.00;99.90;;;;;;4211003;28;20078;-61
2023/08/09 01:46:46;;;;;;;1.80;0.70;;;13.00;99.90;;;;;;4211789;28;20117;-61
2023/08/09 01:48:48;;;;;;;2.33;1.00;;;12.90;99.90;;;;;;4210679;28;20059;-61
2023/08/09 01:50:49;;;;;;;2.00;0.90;;;12.90;99.90;;;;;;4212355;28;20052;-60
2023/08/09 01:52:55;;;;;;;1.40;0.43;;;12.90;99.90;;;;;;4211726;28;20089;-61
2023/08/09 01:54:56;;;;;;;2.73;0.50;;;12.90;99.90;;;;;;4212556;28;20028;-61
2023/08/09 01:56:57;;;;;;;2.10;0.67;;;12.90;99.90;;;;;;4210696;28;20101;-61
2023/08/09 01:58:59;;;;;;;1.20;0.50;;;12.90;99.90;;;;;;4212463;28;20028;-61
2023/08/09 02:01:00;;;;;;;0.67;0.50;;;12.90;99.90;;;;;;4210711;28;20040;-62
2023/08/09 02:03:02;;;;;;;0.93;0.50;;;12.90;99.90;;;;;;4212605;28;20109;-61
2023/08/09 02:05:03;;;;;;;0.77;0.60;;;12.80;99.90;;;;;;4211636;28;20017;-61
2023/08/09 02:07:05;;;;;;;1.60;0.50;;;12.80;99.90;;;;;;4210952;28;20028;-61
2023/08/09 02:09:06;;;;;;;0.47;0.47;;;12.80;99.90;;;;;;4210740;28;20443;-61
2023/08/09 02:11:08;;;;;;;0.90;0.57;;;12.80;99.90;;;;;;4211345;28;20085;-61
2023/08/09 02:13:09;;;;;;;1.97;0.60;;;12.80;99.90;;;;;;4211194;28;20081;-61
2023/08/09 02:15:10;;;;;;;0.80;0.40;;;12.70;99.90;;;;;;4210232;28;20089;-60
2023/08/09 02:17:11;;;;;;;0.40;0.40;;;12.70;99.90;;;;;;4211133;28;20561;-61
2023/08/09 02:19:12;;;;;;;1.07;0.60;;;12.70;99.90;;;;;;4192443;28;20098;-61
2023/08/09 02:21:13;;;;;;;0.70;0.53;;;12.70;99.90;;;;;;4212160;28;20085;-59
2023/08/09 02:23:14;;;;;;;2.13;1.10;;;12.60;99.90;;;;;;4211046;28;20109;-61
2023/08/09 02:25:16;;;;;;;1.43;0.83;;;12.60;99.90;;;;;;4211327;28;20081;-61
2023/08/09 02:27:17;;;;;;;0.50;0.40;;;12.60;99.90;;;;;;4211063;28;20024;-60
2023/08/09 02:29:18;;;;;;;1.23;0.67;;;12.60;99.90;;;;;;4211494;28;20081;-61
2023/08/09 02:31:19;;;;;;;0.87;0.47;;;12.60;99.90;;;;;;4209954;28;20078;-59
2023/08/09 02:33:21;;;;;;;2.60;0.73;;;12.50;99.90;;;;;;4211481;28;20040;-63
2023/08/09 02:35:22;;;;;;;1.90;0.60;;;12.60;99.90;;;;;;4210061;28;20444;-61
2023/08/09 02:37:24;;;;;;;0.63;0.60;;;12.50;99.90;;;;;;4210846;28;20031;-60
2023/08/09 02:39:25;;;;;;;1.47;0.40;;;12.50;99.90;;;;;;4210253;28;20023;-61
2023/08/09 02:41:26;;;;;;;4.10;0.60;;;12.60;99.90;;;;;;4210968;28;20039;-62
2023/08/09 02:43:27;;;;;;;2.10;0.70;;;12.60;99.90;;;;;;4210701;28;20454;-63
2023/08/09 02:45:28;;;;;;;3.40;0.67;;;12.60;99.90;;;;;;4209516;28;20043;-63
2023/08/09 02:47:29;;;;;;;1.63;1.13;;;12.60;99.90;;;;;;4211426;28;20032;-61
2023/08/09 02:49:30;;;;;;;1.57;0.50;;;12.50;99.90;;;;;;4210141;28;20048;-61
2023/08/09 02:51:32;;;;;;;1.53;0.60;;;12.50;99.90;;;;;;4211593;28;20434;-61
2023/08/09 02:53:37;;;;;;;1.03;0.53;;;12.50;99.90;;;;;;4209342;28;20116;-60
2023/08/09 02:55:39;;;;;;;1.33;0.80;;;12.40;99.90;;;;;;4211589;28;20104;-61
2023/08/09 02:57:40;;;;;;;1.00;0.60;;;12.40;99.90;;;;;;4210323;28;20113;-60
2023/08/09 02:59:41;;;;;;;1.43;0.67;;;12.40;99.90;;;;;;4210987;28;20484;-62
2023/08/09 03:01:44;;;;;;;1.30;0.60;;;12.40;99.90;;;;;;4209826;28;20048;-61
2023/08/09 03:03:46;;;;;;;2.33;0.60;;;12.40;99.90;;;;;;4211369;28;20032;-61
2023/08/09 03:05:48;;;;;;;1.80;0.80;;;12.30;99.90;;;;;;4209517;28;20036;-61
2023/08/09 03:07:49;;;;;;;1.50;0.70;;;12.30;99.90;;;;;;4211401;28;20024;-61
2023/08/09 03:09:50;;;;;;;1.00;0.63;;;12.30;99.90;;;;;;4193540;28;20061;-62
2023/08/09 03:11:52;;;;;;;0.97;0.63;;;12.30;99.90;;;;;;4198835;28;20078;-62
2023/08/09 03:13:53;;;;;;;0.87;0.70;;;12.30;99.90;;;;;;4210587;28;20418;-62
2023/08/09 03:15:54;;;;;;;3.77;0.53;;;12.30;99.90;;;;;;4191918;28;20423;-63
2023/08/09 03:17:55;;;;;;;1.83;0.70;;;12.20;99.90;;;;;;4210850;28;20089;-60
2023/08/09 03:19:56;;;;;;;2.70;0.87;;;12.30;99.90;;;;;;4210059;28;20532;-62
2023/08/09 03:21:57;;;;;;;3.13;0.97;;;12.30;99.90;;;;;;4210635;28;20040;-60
2023/08/09 03:23:59;;;;;;;4.13;0.70;;;12.40;99.90;;;;;;4208864;28;20048;-60
2023/08/09 03:26:00;;;;;;;4.33;0.70;;;12.50;99.90;;;;;;4192484;28;20032;-61
2023/08/09 03:28:03;;;;;;;1.83;0.70;;;12.70;99.90;;;;;;4209881;28;20832;-60
2023/08/09 03:30:06;;;;;;;0.87;0.80;;;12.80;99.90;;;;;;4210699;28;20036;-60
2023/08/09 03:32:07;;;;;;;1.73;0.60;;;13.00;99.90;;;;;;4208864;28;20090;-61
2023/08/09 03:34:08;;;;;;;1.27;0.90;;;13.20;99.90;;;;;;4210272;28;20081;-62
2023/08/09 03:36:09;;;;;;;1.60;1.10;;;13.40;99.90;;;;;;4209952;28;20028;-60
2023/08/09 03:38:10;;;;;;;3.10;1.20;;;13.70;99.90;;;;;;4210643;28;20074;-62
2023/08/09 03:40:12;;;;;;;2.40;0.80;;;13.90;99.90;;;;;;4209615;28;20032;-60
2023/08/09 03:42:14;;;;;;;3.57;1.57;;;14.00;99.90;;;;;;4210482;28;20036;-60
2023/08/09 03:44:15;;;;;;;3.97;0.50;;;14.30;99.90;;;;;;4191763;28;20044;-60
2023/08/09 03:46:16;;;;;;;0.53;0.43;;;14.40;99.90;;;;;;4209895;28;20138;-61
2023/08/09 03:48:17;;;;;;;0.73;0.73;;;14.60;99.90;;;;;;4209899;28;20048;-61
2023/08/09 03:50:18;;;;;;;1.10;0.70;;;14.80;99.90;;;;;;4210150;28;20041;-61
2023/08/09 03:52:21;;;;;;;3.17;0.75;;;15.10;99.90;;;;;;4209916;28;20037;-61
2023/08/09 03:54:22;;;;;;;3.03;0.75;;;15.20;99.90;;;;;;4209466;28;20070;-61
2023/08/09 03:56:23;;;;;;;1.88;0.75;;;15.50;99.90;;;;;;4209703;28;20028;-60
2023/08/09 03:58:24;;;;;;;3.78;1.10;;;15.80;99.90;;;;;;4205149;28;20105;-60
2023/08/09 04:00:26;;;;;;;1.02;0.80;;;16.30;99.90;;;;;;4205385;28;20036;-60
2023/08/09 04:02:27;;;;;;;3.03;0.95;;;16.50;99.90;;;;;;4210107;28;20024;-61
2023/08/09 04:04:28;;;;;;;0.68;0.65;;;16.90;99.90;;;;;;4209161;28;20532;-59
2023/08/09 04:06:29;;;;;;;1.60;0.75;;;16.90;99.90;;;;;;4208418;28;20028;-60
2023/08/09 04:08:30;;;;;;;1.38;0.85;;;17.10;99.90;;;;;;4209249;28;20036;-58
2023/08/09 04:10:31;;;;;;;1.80;0.60;;;17.30;99.90;;;;;;4208592;28;20445;-60
2023/08/09 04:12:33;;;;;;;1.17;0.55;;;17.40;99.90;;;;;;4209766;28;20035;-62
2023/08/09 04:14:34;;;;;;;1.40;0.70;;;17.70;99.90;;;;;;4207635;28;20140;-60
2023/08/09 04:16:35;;;;;;;3.55;0.80;;;18.10;99.90;;;;;;4209360;28;20028;-60
2023/08/09 04:18:36;;;;;;;1.23;0.63;;;18.60;99.90;;;;;;4208342;28;20044;-61
2023/08/09 04:20:40;;;;;;;3.17;0.77;;;19.00;99.90;;;;;;4208881;28;20471;-63
2023/08/09 04:22:41;;;;;;;3.22;0.88;;;19.50;99.90;;;;;;4209221;28;20036;-63
2023/08/09 04:24:42;;;;;;;1.08;0.52;;;20.00;99.90;;;;;;4208900;28;20044;-62
2023/08/09 04:26:44;;;;;;;1.33;0.57;;;20.30;99.90;;;;;;4208928;28;20040;-61
2023/08/09 04:28:45;;;;;;;0.68;0.47;;;20.80;99.90;;;;;;4207712;28;20437;-64
2023/08/09 04:30:46;;;;;;;2.25;0.82;;;21.20;99.90;;;;;;4208833;28;20488;-62
2023/08/09 04:32:48;;;;;;;2.80;0.60;;;21.50;99.90;;;;;;4208398;28;20071;-62
2023/08/09 04:34:49;;;;;;;2.20;0.60;;;21.80;99.90;;;;;;4212026;28;20460;-62
2023/08/09 04:36:52;;;;;;;1.10;0.50;;;22.00;99.90;;;;;;4211287;28;20722;-61
2023/08/09 04:38:53;;;;;;;1.58;0.70;;;22.40;99.90;;;;;;4212595;28;20024;-61
2023/08/09 04:40:54;;;;;;;1.30;0.57;;;22.60;99.90;;;;;;4211366;28;20031;-61
2023/08/09 04:42:55;;;;;;;2.53;0.70;;;22.80;99.90;;;;;;4194451;28;20045;-60
2023/08/09 04:44:56;;;;;;;3.80;0.90;;;22.90;99.90;;;;;;4204602;28;20044;-61
2023/08/09 04:46:58;;;;;;;2.00;0.60;;;23.10;99.60;;;;;;4211937;28;20082;-60
2023/08/09 04:48:59;;;;;;;1.75;0.68;;;23.20;99.30;;;;;;4193597;28;20025;-62
2023/08/09 04:51:01;;;;;;;7.10;0.98;;;23.20;99.00;;;;;;4212235;28;20180;-62
2023/08/09 04:53:02;;;;;;;0.57;0.52;;;23.40;98.60;;;;;;4212780;28;20065;-61
2023/08/09 04:55:04;;;;;;;4.90;1.30;;;23.70;98.10;;;;;;4212386;28;20036;-65
2023/08/09 04:57:05;;;;;;;2.10;0.73;;;24.00;97.70;;;;;;4211747;28;20085;-65
2023/08/09 04:59:06;;;;;;;1.63;1.20;;;24.20;97.20;;;;;;4211000;28;20085;-63
2023/08/09 05:01:07;;;;;;;2.15;0.77;;;24.60;96.70;;;;;;4211910;28;20052;-63
2023/08/09 05:03:08;;;;;;;1.77;0.73;;;24.50;96.00;;;;;;4212710;28;20422;-62
2023/08/09 05:05:11;;;;;;;3.28;0.80;;;24.70;95.70;;;;;;4211681;28;20040;-62
2023/08/09 05:07:12;;;;;;;2.15;0.80;;;24.80;95.50;;;;;;4192408;28;20033;-61
2023/08/09 05:09:13;;;;;;;2.15;0.90;;;24.90;95.20;;;;;;4212579;28;20040;-62
2023/08/09 05:11:14;;;;;;;4.40;0.90;;;25.30;94.80;;;;;;4211580;28;20386;-65
2023/08/09 05:13:15;;;;;;;1.70;0.73;;;25.80;94.30;;;;;;4212195;28;20088;-61
2023/08/09 05:15:16;;;;;;;3.40;1.13;;;26.00;93.50;;;;;;4212074;28;20028;-61
2023/08/09 05:17:17;;;;;;;2.58;1.83;;;26.10;93.20;;;;;;4213027;28;20497;-62
2023/08/09 05:19:19;;;;;;;3.55;1.02;;;26.20;92.70;;;;;;4210969;28;20101;-61
2023/08/09 05:21:20;;;;;;;1.08;0.70;;;26.00;92.40;;;;;;4212659;28;20549;-61
2023/08/09 05:23:21;;;;;;;6.72;0.90;;;26.00;92.50;;;;;;4212040;28;20032;-62
2023/08/09 05:25:23;;;;;;;2.47;0.57;;;26.30;92.10;;;;;;4211235;28;20472;-61
2023/08/09 05:27:24;;;;;;;1.88;0.60;;;26.60;91.70;;;;;;4211431;28;20402;-61
2023/08/09 05:29:25;;;;;;;3.08;0.80;;;26.90;91.20;;;;;;4211998;28;20016;-62
2023/08/09 05:31:26;;;;;;;2.50;0.75;;;26.70;90.50;;;;;;4193790;28;20829;-60
2023/08/09 05:33:27;;;;;;;0.95;0.57;;;26.20;90.70;;;;;;4211887;28;20472;-60
2023/08/09 05:35:29;;;;;;;2.00;0.57;;;25.80;90.70;;;;;;4212659;28;20093;-61
2023/08/09 05:37:31;;;;;;;3.35;0.80;;;25.70;90.90;;;;;;4210504;28;20024;-61
2023/08/09 05:39:32;;;;;;;1.13;0.88;;;25.30;90.90;;;;;;4212274;28;20476;-61
2023/08/09 05:41:33;;;;;;;1.52;0.70;;;25.00;91.20;;;;;;4211000;28;20039;-62
2023/08/09 05:43:34;;;;;;;0.90;0.40;;;25.50;91.30;;;;;;4211744;28;20097;-61
2023/08/09 05:45:35;;;;;;;3.25;0.70;;;26.20;90.70;;;;;;4209855;28;20108;-60
2023/08/09 05:47:36;;;;;;;2.88;0.80;;;26.70;90.20;;;;;;4212517;28;20525;-60
2023/08/09 05:49:38;;;;;;;2.55;0.57;;;27.20;89.30;;;;;;4210890;28;20060;-62
2023/08/09 05:51:39;;;;;;;1.52;0.60;;;27.40;88.30;;;;;;4212306;28;20044;-61
2023/08/09 05:53:40;;;;;;;1.17;0.65;;;27.80;87.60;;;;;;4210603;28;20028;-62
2023/08/09 05:55:41;;;;;;;4.20;0.80;;;28.00;87.00;;;;;;4211289;28;20028;-62
2023/08/09 05:57:42;;;;;;;4.57;0.98;;;27.80;86.60;;;;;;4210640;28;20464;-61
2023/08/09 05:59:43;;;;;;;4.03;1.20;;;27.20;86.40;;;;;;4211467;28;20024;-62
2023/08/09 06:01:44;;;;;;;2.60;0.98;;;26.80;87.50;;;;;;4211452;28;20463;-61
2023/08/09 06:03:45;;;;;;;0.73;0.73;;;26.70;87.20;;;;;;4210885;28;20542;-65
2023/08/09 06:05:46;;;;;;;2.88;0.80;;;26.90;87.20;;;;;;4211618;28;20078;-63
2023/08/09 06:07:47;;;;;;;4.15;0.88;;;27.20;86.50;;;;;;4211075;28;20078;-63
2023/08/09 06:09:49;;;;;;;3.13;0.70;;;27.50;86.10;;;;;;4212366;28;20184;-60
2023/08/09 06:11:50;;;;;;;1.83;0.73;;;27.40;85.60;;;;;;4210671;28;20498;-62
2023/08/09 06:13:51;;;;;;;2.45;0.63;;;26.90;85.50;;;;;;4211922;28;20040;-62
2023/08/09 06:15:52;;;;;;;2.35;0.82;;;26.80;85.90;;;;;;4210566;28;20089;-62
2023/08/09 06:17:53;;;;;;;0.90;0.35;;;26.60;85.80;;;;;;4211606;28;20062;-62
2023/08/09 06:19:54;;;;;;;1.40;0.40;;;26.50;85.80;;;;;;4210913;28;20379;-61
2023/08/09 06:21:56;;;;;;;2.83;0.80;;;26.50;86.00;;;;;;4211615;28;20156;-64
2023/08/09 06:23:57;;;;;;;3.05;0.90;;;26.30;85.60;;;;;;4210131;28;20093;-62
2023/08/09 06:25:58;;;;;;;5.05;1.08;;;26.20;86.20;;;;;;4211550;28;20463;-63
2023/08/09 06:28:00;;;;;;;3.70;1.08;;;26.90;86.00;;;;;;4210174;28;20036;-60
2023/08/09 06:30:01;;;;;;;3.72;1.02;;;27.20;85.00;;;;;;4211340;28;20093;-65
2023/08/09 06:32:03;;;;;;;1.25;0.80;;;27.30;85.20;;;;;;4210746;28;20040;-62
2023/08/09 06:34:04;;;;;;;1.25;0.80;;;27.30;84.70;;;;;;4210354;28;20093;-62
2023/08/09 06:36:06;;;;;;;3.60;0.80;;;27.10;84.70;;;;;;4211579;28;20081;-62
2023/08/09 06:38:07;;;;;;;1.02;0.80;;;27.20;84.70;;;;;;4210511;28;20023;-62
2023/08/09 06:40:09;;;;;;;3.60;0.90;;;26.90;84.60;;;;;;4211578;28;20020;-60
2023/08/09 06:42:12;;;;;;;3.20;0.80;;;26.00;85.00;;;;;;4210668;28;20467;-61
2023/08/09 06:44:13;;;;;;;1.50;0.90;;;25.50;86.30;;;;;;4210842;28;20053;-62
2023/08/09 06:46:14;;;;;;;1.85;0.65;;;25.20;87.40;;;;;;4210634;28;20545;-61
2023/08/09 06:48:15;;;;;;;4.40;0.80;;;25.30;87.80;;;;;;4211520;28;20073;-61
2023/08/09 06:50:16;;;;;;;2.72;0.88;;;25.00;87.70;;;;;;4209477;28;20097;-61
2023/08/09 06:52:17;;;;;;;4.93;0.80;;;25.00;87.80;;;;;;4193143;28;20102;-62
2023/08/09 06:54:18;;;;;;;1.58;0.65;;;25.30;88.00;;;;;;4210186;28;20024;-61
2023/08/09 06:56:19;;;;;;;5.88;0.98;;;25.50;87.90;;;;;;4211315;28;20382;-60
2023/08/09 06:58:20;;;;;;;5.68;0.95;;;25.70;87.70;;;;;;4209617;28;20173;-62
2023/08/09 07:00:21;;;;;;;3.72;0.93;;;25.60;87.70;;;;;;4210643;28;20081;-63
2023/08/09 07:02:23;;;;;;;1.67;1.00;;;25.40;87.70;;;;;;4210264;28;20449;-62
2023/08/09 07:04:25;;;;;;;2.13;1.02;;;25.40;88.10;;;;;;4210007;28;20036;-61
2023/08/09 07:06:26;;;;;;;4.28;1.08;;;25.00;88.10;;;;;;4210887;28;20035;-61
2023/08/09 07:08:27;;;;;;;6.68;1.00;;;24.30;89.10;;;;;;4210090;28;20028;-61
2023/08/09 07:10:28;;;;;;;4.57;1.00;;;23.90;89.80;;;;;;4210386;28;20504;-61
2023/08/09 07:12:30;;;;;;;3.30;1.17;;;23.40;90.00;;;;;;4209990;28;20020;-61
2023/08/09 07:14:31;;;;;;;1.67;1.08;;;23.20;90.30;;;;;;4210858;28;20020;-61
2023/08/09 07:16:32;;;;;;;2.10;1.38;;;23.20;90.30;;;;;;4209065;28;20063;-61
2023/08/09 07:18:33;;;;;;;2.08;1.00;;;23.40;90.30;;;;;;4210956;28;20024;-61
2023/08/09 07:20:34;;;;;;;2.10;1.10;;;23.10;90.20;;;;;;4210100;28;20468;-61
2023/08/09 07:22:36;;;;;;;4.22;0.95;;;22.90;90.50;;;;;;4211189;28;20040;-60
2023/08/09 07:24:37;;;;;;;5.05;1.25;;;22.50;90.80;;;;;;4209020;28;20438;-61
2023/08/09 07:26:39;;;;;;;4.30;1.20;;;22.40;91.20;;;;;;4209931;28;20101;-60
2023/08/09 07:28:40;;;;;;;1.65;0.85;;;22.60;91.30;;;;;;4209159;28;20040;-61
2023/08/09 07:30:41;;;;;;;3.63;0.68;;;22.50;90.80;;;;;;4209897;28;20040;-61
2023/08/09 07:32:43;;;;;;;1.33;1.13;;;22.70;90.60;;;;;;4210370;28;20472;-61
2023/08/09 07:34:44;;;;;;;3.22;0.60;;;23.00;90.40;;;;;;4210499;28;20082;-61
2023/08/09 07:36:45;;;;;;;4.93;1.40;;;23.00;90.00;;;;;;4210175;28;20090;-61
2023/08/09 07:38:46;;;;;;;5.53;1.13;;;22.60;90.50;;;;;;4209146;28;20690;-62
2023/08/09 07:40:48;;;;;;;3.17;1.38;;;22.50;90.70;;;;;;4210363;28;20073;-60
2023/08/09 07:42:49;;;;;;;4.22;1.10;;;22.20;91.10;;;;;;4191119;28;20052;-59
2023/08/09 07:44:50;;;;;;;5.93;1.38;;;21.90;91.30;;;;;;4210750;28;20036;-61
2023/08/09 07:46:51;;;;;;;5.65;1.02;;;21.90;91.50;;;;;;4209517;28;20430;-62
2023/08/09 07:48:53;;;;;;;10.75;1.20;;;21.80;91.80;;;;;;4210033;28;20040;-60
2023/08/09 07:50:54;;;;;;;6.22;0.88;;;21.70;92.00;;;;;;4209258;28;20557;-62
2023/08/09 07:52:55;;;;;;;1.35;0.88;;;21.80;92.10;;;;;;4209976;28;20036;-61
2023/08/09 07:54:57;;;;;;;1.17;0.65;;;21.90;92.20;;;;;;4208830;28;20065;-62
2023/08/09 07:56:58;;;;;;;2.28;0.93;;;22.20;92.00;;;;;;4210538;28;20493;-61
2023/08/09 07:58:59;;;;;;;2.90;0.98;;;22.20;92.00;;;;;;4209296;28;20077;-60
2023/08/09 08:01:04;;;;;;;5.30;0.88;;;22.30;92.10;;;;;;4210490;28;20051;-61
2023/08/09 08:03:05;;;;;;;2.53;0.80;;;22.30;92.10;;;;;;4209849;28;20435;-61
2023/08/09 08:05:06;;;;;;;1.02;0.77;;;22.20;92.20;;;;;;4209576;28;20065;-62
2023/08/09 08:07:10;;;;;;;2.20;0.80;;;22.20;92.00;;;;;;4209691;28;20024;-62
2023/08/09 08:09:13;;;;;;;1.13;0.77;;;22.50;91.80;;;;;;4210971;28;20040;-60
2023/08/09 08:11:14;;;;;;;4.13;0.73;;;22.50;92.00;;;;;;4212388;28;20028;-64
2023/08/09 08:13:15;;;;;;;2.05;0.68;;;22.50;91.90;;;;;;4213189;28;20024;-61
2023/08/09 08:15:18;;;;;;;2.13;0.60;;;22.60;91.80;;;;;;4213951;28;20040;-61
2023/08/09 08:17:19;;;;;;;1.52;0.75;;;22.70;91.40;;;;;;4212919;28;20040;-62
2023/08/09 08:19:20;;;;;;;1.35;0.75;;;22.40;91.20;;;;;;4213514;28;20501;-62
2023/08/09 08:21:21;;;;;;;2.15;0.77;;;22.40;91.00;;;;;;4211970;28;20105;-62
2023/08/09 08:23:22;;;;;;;18.35;4.05;;;22.30;90.60;;;;;;4212831;28;20364;-61
2023/08/09 08:25:23;;;;;;;3.70;1.17;;;22.40;90.50;;;;;;4212147;28;20024;-63
2023/08/09 08:27:25;;;;;;;1.58;0.70;;;22.40;90.00;;;;;;4213280;28;20036;-61
2023/08/09 08:29:27;;;;;;;4.05;0.90;;;22.60;89.40;;;;;;4211027;28;20061;-63
2023/08/09 08:31:28;;;;;;;1.38;0.68;;;22.80;88.90;;;;;;4213218;28;20036;-63
2023/08/09 08:33:29;;;;;;;1.88;0.70;;;23.00;88.10;;;;;;4212719;28;20036;-61
2023/08/09 08:35:36;;;;;;;2.03;0.57;;;23.10;87.60;;;;;;4213375;28;20054;-62
2023/08/09 08:37:38;;;;;;;2.25;0.50;;;23.10;86.70;;;;;;4211591;28;20422;-61
2023/08/09 08:39:41;;;;;;;1.85;0.47;;;23.50;86.80;;;;;;4193817;28;20040;-61
2023/08/09 08:41:42;;;;;;;1.65;1.20;;;23.80;86.60;;;;;;4211769;28;20720;-61
2023/08/09 08:43:45;;;;;;;1.58;0.40;;;24.30;86.20;;;;;;4212602;28;20135;-61
2023/08/09 08:45:49;;;;;;;2.55;0.70;;;24.70;85.80;;;;;;4212912;28;20077;-62
2023/08/09 08:47:51;;;;;;;0.40;0.40;;;25.00;85.30;;;;;;4212526;28;20092;-62
2023/08/09 08:49:55;;;;;;;1.38;0.82;;;25.20;85.20;;;;;;4212134;28;20097;-60
2023/08/09 08:51:59;;;;;;;0.52;0.50;;;25.40;84.40;;;;;;4212150;28;20028;-60
2023/08/09 08:54:01;;;;;;;3.45;1.88;;;25.20;82.80;;;;;;4213385;28;20036;-61
2023/08/09 08:56:02;;;;;;;1.92;0.95;;;24.60;83.50;;;;;;4211113;28;20035;-61
2023/08/09 08:58:03;;;;;;;1.20;0.52;;;24.00;84.30;;;;;;4213083;28;20085;-63
2023/08/09 09:00:15;;;;;;;4.60;1.25;;;23.90;84.70;;;;;;4211305;28;20066;-63
2023/08/09 09:02:16;;;;;;;3.13;1.20;;;23.90;84.50;;;;;;4212365;28;20384;-62
2023/08/09 09:04:17;;;;;;;1.67;0.80;;;23.90;84.70;;;;;;4212285;28;20097;-64
2023/08/09 09:06:19;;;;;;;2.58;0.75;;;23.70;84.60;;;;;;4213144;28;20093;-62
2023/08/09 09:08:22;;;;;;;1.67;0.90;;;23.50;84.20;;;;;;4193377;28;20107;-61
2023/08/09 09:10:23;;;;;;;1.23;0.43;;;23.30;84.40;;;;;;4212933;28;20082;-60
2023/08/09 09:12:25;;;;;;;1.02;0.65;;;23.20;84.40;;;;;;4211437;28;20085;-61
2023/08/09 09:14:26;;;;;;;4.32;0.63;;;23.30;84.60;;;;;;4213133;28;20024;-60
2023/08/09 09:16:27;;;;;;;2.92;0.75;;;23.40;84.50;;;;;;4211887;28;20065;-60
2023/08/09 09:18:28;;;;;;;0.73;0.70;;;23.60;84.50;;;;;;4211837;28;20541;-61
2023/08/09 09:20:33;;;;;;;0.95;0.40;;;23.70;84.40;;;;;;4210365;28;20027;-61
2023/08/09 09:22:34;;;;;;;0.52;0.50;;;23.70;83.50;;;;;;4212275;28;20090;-61
2023/08/09 09:24:35;;;;;;;3.72;0.73;;;23.60;83.60;;;;;;4212320;28;20085;-61
2023/08/09 09:26:38;;;;;;;0.70;0.52;;;23.30;83.90;;;;;;4211859;28;20469;-62
2023/08/09 09:28:44;;;;;;;0.57;0.52;;;23.20;84.40;;;;;;4212628;28;20078;-60
2023/08/09 09:30:59;;;;;;;1.95;0.55;;;23.20;84.40;;;;;;4211556;28;20456;-60
2023/08/09 09:33:04;;;;;;;0.52;0.43;;;23.40;83.70;;;;;;4211800;28;20399;-60
2023/08/09 09:35:06;;;;;;;0.88;0.70;;;23.30;83.20;;;;;;4211536;28;20024;-61
2023/08/09 09:37:08;;;;;;;1.13;0.75;;;23.30;83.60;;;;;;4194352;28;20037;-61
2023/08/09 09:39:10;;;;;;;1.20;0.65;;;23.20;84.30;;;;;;4211421;28;20017;-61
2023/08/09 09:41:13;;;;;;;3.55;0.77;;;23.10;84.30;;;;;;4212037;28;20048;-61
2023/08/09 09:43:15;;;;;;;1.85;0.60;;;23.10;84.50;;;;;;4211462;28;20478;-63
2023/08/09 09:45:24;;;;;;;1.50;0.73;;;23.00;84.30;;;;;;4212325;28;20036;-61
2023/08/09 09:47:25;;;;;;;1.92;0.50;;;23.00;84.50;;;;;;4211334;28;20097;-61
2023/08/09 09:49:26;;;;;;;0.88;0.43;;;23.00;84.60;;;;;;4211676;28;20132;-61
2023/08/09 09:51:28;;;;;;;0.88;0.50;;;22.90;84.40;;;;;;4211358;28;20065;-61
2023/08/09 09:53:32;;;;;;;1.00;0.85;;;22.60;85.30;;;;;;4212423;28;20016;-61
2023/08/09 09:55:33;;;;;;;2.63;0.68;;;22.60;85.50;;;;;;4209796;28;20077;-62
2023/08/09 09:57:34;;;;;;;1.08;0.70;;;22.80;85.80;;;;;;4212176;28;20049;-61
2023/08/09 09:59:36;;;;;;;2.58;0.77;;;23.20;86.40;;;;;;4211109;28;20572;-60
2023/08/09 10:01:42;;;;;;;1.55;0.35;;;23.30;85.30;;;;;;4211750;28;20444;-60
2023/08/09 10:03:44;;;;;;;0.77;0.40;;;23.30;85.00;;;;;;4211073;28;20101;-61
2023/08/09 10:05:47;;;;;;;0.63;0.50;;;23.10;84.90;;;;;;4211213;28;20371;-60
2023/08/09 10:07:49;;;;;;;1.08;0.28;;;23.10;85.30;;;;;;4211678;28;20024;-61
2023/08/09 10:09:54;;;;;;;2.22;0.57;;;23.00;85.00;;;;;;4211461;28;20028;-61
2023/08/09 10:11:58;;;;;;;0.70;0.30;;;22.60;85.60;;;;;;4210877;28;20129;-61
2023/08/09 10:14:02;;;;;;;0.70;0.30;;;22.50;85.80;;;;;;4211135;28;20096;-61
2023/08/09 10:16:06;;;;;;;1.02;0.40;;;22.50;85.90;;;;;;4211743;28;20028;-61
2023/08/09 10:18:32;;;;;;;1.33;0.47;;;22.60;86.10;;;;;;4210009;28;20334;-62
2023/08/09 10:20:34;;;;;;;2.45;0.50;;;22.80;86.80;;;;;;4211464;28;20028;-62
2023/08/09 10:22:36;;;;;;;0.40;0.40;;;23.00;86.40;;;;;;4210471;28;20085;-62
2023/08/09 10:24:50;;;;;;;0.68;0.50;;;23.00;85.40;;;;;;4211825;28;20020;-61
2023/08/09 10:26:54;;;;;;;1.77;0.60;;;23.00;85.20;;;;;;4210598;28;20391;-60
2023/08/09 10:29:10;;;;;;;0.65;0.47;;;22.90;85.40;;;;;;4211999;28;20016;-61
2023/08/09 10:31:49;;;;;;;0.75;0.60;;;23.10;85.80;;;;;;4210034;28;20044;-61
2023/08/09 10:34:08;;;;;;;2.83;1.40;;;23.50;85.70;;;;;;4208360;28;20036;-61
2023/08/09 10:36:13;;;;;;;1.77;0.50;;;23.80;86.30;;;;;;4210917;28;20089;-62
2023/08/09 10:38:16;;;;;;;1.42;0.57;;;23.80;85.40;;;;;;4210702;28;20565;-62